Terminal Aerodrome Forecast
Issued by NWS

Home | Current Version | Previous Version | Text Only | Print | Product List | Glossary On
Versions: 1 2 3 4 5 6 7 8 9 10 11 12 13 14 15 16 17 18 19 20
000
FTUS46 KLOX 201900 AAA
TAFSBA
TAF AMD
KSBA 201934Z 2020/2118 16004KT P6SM OVC026
     FM202230 25010KT P6SM SCT027
     FM210400 VRB03KT P6SM SCT015
     FM210800 VRB03KT P6SM BKN017
     FM211300 VRB03KT P6SM OVC012=

USA.gov is the U.S. government's official web portal to all federal, state and local government web resources and services.